sensor_id;sensor_type;location;lat;lon;timestamp;pressure;altitude;pressure_sealevel;temperature;humidity
23574;BME280;11965;53.640;10.050;2023-03-14T00:00:08;98629.59;;;9.36;100.00
23574;BME280;11965;53.640;10.050;2023-03-14T00:02:35;98627.53;;;9.32;100.00
23574;BME280;11965;53.640;10.050;2023-03-14T00:05:04;98621.06;;;9.38;100.00
23574;BME280;11965;53.640;10.050;2023-03-14T00:07:33;98631.38;;;9.31;100.00
23574;BME280;11965;53.640;10.050;2023-03-14T00:10:01;98632.94;;;9.38;100.00
23574;BME280;11965;53.640;10.050;2023-03-14T00:12:30;98635.22;;;9.53;100.00
23574;BME280;11965;53.640;10.050;2023-03-14T00:14:57;98622.47;;;9.52;100.00
23574;BME280;11965;53.640;10.050;2023-03-14T00:17:25;98645.19;;;9.42;100.00
23574;BME280;11965;53.640;10.050;2023-03-14T00:19:53;98654.22;;;9.26;100.00
23574;BME280;11965;53.640;10.050;2023-03-14T00:22:21;98654.34;;;9.19;100.00
23574;BME280;11965;53.640;10.050;2023-03-14T00:24:48;98653.63;;;9.36;100.00
23574;BME280;11965;53.640;10.050;2023-03-14T00:27:15;98653.13;;;9.39;100.00
23574;BME280;11965;53.640;10.050;2023-03-14T00:29:42;98647.84;;;9.49;100.00
23574;BME280;11965;53.640;10.050;2023-03-14T00:32:09;98641.69;;;9.70;100.00
23574;BME280;11965;53.640;10.050;2023-03-14T00:34:39;98642.59;;;9.88;100.00
23574;BME280;11965;53.640;10.050;2023-03-14T00:37:06;98638.38;;;9.97;100.00
23574;BME280;11965;53.640;10.050;2023-03-14T00:39:34;98619.34;;;10.01;100.00
23574;BME280;11965;53.640;10.050;2023-03-14T00:42:01;98617.25;;;9.79;100.00
23574;BME280;11965;53.640;10.050;2023-03-14T00:44:28;98609.94;;;9.73;100.00
23574;BME280;11965;53.640;10.050;2023-03-14T00:46:55;98607.06;;;9.68;100.00
23574;BME280;11965;53.640;10.050;2023-03-14T00:49:22;98604.78;;;9.65;100.00
23574;BME280;11965;53.640;10.050;2023-03-14T00:51:50;98607.63;;;9.82;100.00
23574;BME280;11965;53.640;10.050;2023-03-14T00:54:18;98589.44;;;9.86;100.00
23574;BME280;11965;53.640;10.050;2023-03-14T00:56:47;98583.91;;;9.86;100.00
23574;BME280;11965;53.640;10.050;2023-03-14T00:59:15;98585.59;;;9.87;100.00
23574;BME280;11965;53.640;10.050;2023-03-14T01:01:43;98599.31;;;9.82;100.00
23574;BME280;11965;53.640;10.050;2023-03-14T01:04:11;98598.72;;;9.80;100.00
23574;BME280;11965;53.640;10.050;2023-03-14T01:06:39;98603.63;;;9.89;100.00
23574;BME280;11965;53.640;10.050;2023-03-14T01:09:06;98606.72;;;10.05;100.00
23574;BME280;11965;53.640;10.050;2023-03-14T01:11:34;98617.53;;;10.06;100.00
23574;BME280;11965;53.640;10.050;2023-03-14T01:14:03;98621.91;;;10.02;100.00
23574;BME280;11965;53.640;10.050;2023-03-14T01:16:34;98618.03;;;10.03;100.00
23574;BME280;11965;53.640;10.050;2023-03-14T01:19:02;98619.47;;;10.06;100.00
23574;BME280;11965;53.640;10.050;2023-03-14T01:21:32;98629.19;;;10.08;100.00
23574;BME280;11965;53.640;10.050;2023-03-14T01:24:01;98617.72;;;10.28;100.00
23574;BME280;11965;53.640;10.050;2023-03-14T01:26:30;98620.13;;;10.25;100.00
23574;BME280;11965;53.640;10.050;2023-03-14T01:28:58;98618.81;;;10.27;100.00
23574;BME280;11965;53.640;10.050;2023-03-14T01:31:28;98623.97;;;10.24;100.00
23574;BME280;11965;53.640;10.050;2023-03-14T01:33:55;98613.75;;;10.24;100.00
23574;BME280;11965;53.640;10.050;2023-03-14T01:36:23;98604.09;;;10.27;100.00
23574;BME280;11965;53.640;10.050;2023-03-14T01:38:50;98599.06;;;10.24;100.00
23574;BME280;11965;53.640;10.050;2023-03-14T01:41:20;98577.88;;;10.29;99.71
23574;BME280;11965;53.640;10.050;2023-03-14T01:43:49;98569.84;;;10.16;100.00
23574;BME280;11965;53.640;10.050;2023-03-14T01:46:30;98562.88;;;10.13;100.00
23574;BME280;11965;53.640;10.050;2023-03-14T01:49:06;98547.34;;;10.12;100.00
23574;BME280;11965;53.640;10.050;2023-03-14T01:51:42;98545.03;;;9.92;100.00
23574;BME280;11965;53.640;10.050;2023-03-14T01:54:16;98540.63;;;9.80;100.00
23574;BME280;11965;53.640;10.050;2023-03-14T01:56:50;98541.84;;;9.72;100.00
23574;BME280;11965;53.640;10.050;2023-03-14T01:59:19;98547.53;;;9.65;100.00
23574;BME280;11965;53.640;10.050;2023-03-14T02:01:51;98554.75;;;9.66;100.00
23574;BME280;11965;53.640;10.050;2023-03-14T02:04:19;98560.44;;;9.88;100.00
23574;BME280;11965;53.640;10.050;2023-03-14T02:06:51;98565.00;;;9.94;100.00
23574;BME280;11965;53.640;10.050;2023-03-14T02:09:23;98555.38;;;9.97;100.00
23574;BME280;11965;53.640;10.050;2023-03-14T02:11:51;98547.19;;;10.02;100.00
23574;BME280;11965;53.640;10.050;2023-03-14T02:14:38;98540.38;;;10.10;100.00
23574;BME280;11965;53.640;10.050;2023-03-14T02:17:35;98524.22;;;10.18;100.00
23574;BME280;11965;53.640;10.050;2023-03-14T02:20:28;98506.09;;;10.11;100.00
23574;BME280;11965;53.640;10.050;2023-03-14T02:22:58;98498.81;;;10.05;100.00
23574;BME280;11965;53.640;10.050;2023-03-14T02:25:38;98483.63;;;9.79;100.00
23574;BME280;11965;53.640;10.050;2023-03-14T02:28:07;98485.16;;;9.58;100.00
23574;BME280;11965;53.640;10.050;2023-03-14T02:30:36;98484.13;;;9.47;100.00
23574;BME280;11965;53.640;10.050;2023-03-14T02:33:08;98490.28;;;9.37;100.00
23574;BME280;11965;53.640;10.050;2023-03-14T02:35:39;98494.97;;;9.37;100.00
23574;BME280;11965;53.640;10.050;2023-03-14T02:38:15;98495.22;;;9.35;100.00
23574;BME280;11965;53.640;10.050;2023-03-14T02:40:45;98489.03;;;9.45;100.00
23574;BME280;11965;53.640;10.050;2023-03-14T02:43:13;98498.06;;;9.52;100.00
23574;BME280;11965;53.640;10.050;2023-03-14T02:45:46;98502.00;;;9.56;100.00
23574;BME280;11965;53.640;10.050;2023-03-14T02:48:21;98504.75;;;9.56;100.00
23574;BME280;11965;53.640;10.050;2023-03-14T02:50:53;98507.28;;;9.58;100.00
23574;BME280;11965;53.640;10.050;2023-03-14T02:53:25;98507.88;;;9.60;100.00
23574;BME280;11965;53.640;10.050;2023-03-14T02:55:55;98510.38;;;9.61;100.00
23574;BME280;11965;53.640;10.050;2023-03-14T02:58:26;98517.03;;;9.60;100.00
23574;BME280;11965;53.640;10.050;2023-03-14T03:01:00;98508.50;;;9.62;100.00
23574;BME280;11965;53.640;10.050;2023-03-14T03:03:27;98511.31;;;9.67;100.00
23574;BME280;11965;53.640;10.050;2023-03-14T03:05:55;98510.09;;;9.74;100.00
23574;BME280;11965;53.640;10.050;2023-03-14T03:08:26;98510.19;;;9.80;100.00
23574;BME280;11965;53.640;10.050;2023-03-14T03:10:55;98515.72;;;9.80;100.00
23574;BME280;11965;53.640;10.050;2023-03-14T03:13:24;98509.69;;;9.83;100.00
23574;BME280;11965;53.640;10.050;2023-03-14T03:15:54;98504.28;;;9.88;100.00
23574;BME280;11965;53.640;10.050;2023-03-14T03:18:20;98498.34;;;9.96;100.00
23574;BME280;11965;53.640;10.050;2023-03-14T03:20:47;98501.19;;;10.01;100.00
23574;BME280;11965;53.640;10.050;2023-03-14T03:23:15;98497.28;;;9.97;100.00
23574;BME280;11965;53.640;10.050;2023-03-14T03:25:42;98490.63;;;9.98;100.00
23574;BME280;11965;53.640;10.050;2023-03-14T03:28:08;98487.03;;;9.98;100.00
23574;BME280;11965;53.640;10.050;2023-03-14T03:30:40;98479.91;;;10.02;100.00
23574;BME280;11965;53.640;10.050;2023-03-14T03:33:07;98489.72;;;10.09;100.00
23574;BME280;11965;53.640;10.050;2023-03-14T03:35:34;98473.81;;;10.16;100.00
23574;BME280;11965;53.640;10.050;2023-03-14T03:38:01;98469.44;;;10.21;100.00
23574;BME280;11965;53.640;10.050;2023-03-14T03:40:29;98462.31;;;10.25;100.00
23574;BME280;11965;53.640;10.050;2023-03-14T03:42:56;98457.50;;;10.32;100.00
23574;BME280;11965;53.640;10.050;2023-03-14T03:45:23;98456.81;;;10.42;100.00
23574;BME280;11965;53.640;10.050;2023-03-14T03:47:55;98451.47;;;10.35;100.00
23574;BME280;11965;53.640;10.050;2023-03-14T03:50:22;98447.78;;;10.29;100.00
23574;BME280;11965;53.640;10.050;2023-03-14T03:52:49;98450.53;;;10.29;100.00
23574;BME280;11965;53.640;10.050;2023-03-14T03:55:16;98436.09;;;10.27;100.00
23574;BME280;11965;53.640;10.050;2023-03-14T03:57:44;98454.63;;;10.27;100.00
23574;BME280;11965;53.640;10.050;2023-03-14T04:00:12;98446.47;;;10.20;100.00
23574;BME280;11965;53.640;10.050;2023-03-14T04:02:41;98451.09;;;10.31;100.00
23574;BME280;11965;53.640;10.050;2023-03-14T04:05:13;98439.59;;;10.23;100.00
23574;BME280;11965;53.640;10.050;2023-03-14T04:07:47;98449.81;;;10.22;100.00
23574;BME280;11965;53.640;10.050;2023-03-14T04:10:19;98448.25;;;10.26;100.00
23574;BME280;11965;53.640;10.050;2023-03-14T04:13:00;98434.56;;;10.20;100.00
23574;BME280;11965;53.640;10.050;2023-03-14T04:15:29;98433.03;;;10.12;100.00
23574;BME280;11965;53.640;10.050;2023-03-14T04:18:00;98434.22;;;10.16;100.00
23574;BME280;11965;53.640;10.050;2023-03-14T04:20:28;98428.41;;;10.17;100.00
23574;BME280;11965;53.640;10.050;2023-03-14T04:22:55;98427.19;;;10.08;100.00
23574;BME280;11965;53.640;10.050;2023-03-14T04:25:23;98427.31;;;10.02;100.00
23574;BME280;11965;53.640;10.050;2023-03-14T04:27:54;98420.13;;;10.01;100.00
23574;BME280;11965;53.640;10.050;2023-03-14T04:30:24;98424.72;;;9.95;100.00
23574;BME280;11965;53.640;10.050;2023-03-14T04:33:01;98414.91;;;9.87;100.00
23574;BME280;11965;53.640;10.050;2023-03-14T04:35:31;98422.19;;;9.93;100.00
23574;BME280;11965;53.640;10.050;2023-03-14T04:38:02;98410.97;;;9.83;100.00
23574;BME280;11965;53.640;10.050;2023-03-14T04:40:31;98410.72;;;9.85;100.00
23574;BME280;11965;53.640;10.050;2023-03-14T04:43:02;98408.03;;;9.90;100.00
23574;BME280;11965;53.640;10.050;2023-03-14T04:45:30;98412.06;;;9.99;100.00
23574;BME280;11965;53.640;10.050;2023-03-14T04:47:59;98417.84;;;10.14;100.00
23574;BME280;11965;53.640;10.050;2023-03-14T04:50:26;98411.50;;;10.31;100.00
23574;BME280;11965;53.640;10.050;2023-03-14T04:52:54;98407.66;;;10.32;100.00
23574;BME280;11965;53.640;10.050;2023-03-14T04:55:21;98415.69;;;10.33;100.00
23574;BME280;11965;53.640;10.050;2023-03-14T04:57:48;98429.91;;;10.37;100.00
23574;BME280;11965;53.640;10.050;2023-03-14T05:00:15;98417.53;;;10.45;98.67
23574;BME280;11965;53.640;10.050;2023-03-14T05:02:53;98419.47;;;10.44;95.98
23574;BME280;11965;53.640;10.050;2023-03-14T05:05:22;98421.50;;;10.32;95.78
23574;BME280;11965;53.640;10.050;2023-03-14T05:08:14;98421.63;;;10.08;97.56
23574;BME280;11965;53.640;10.050;2023-03-14T05:10:52;98415.84;;;10.10;96.05
23574;BME280;11965;53.640;10.050;2023-03-14T05:13:38;98406.53;;;9.99;96.14
23574;BME280;11965;53.640;10.050;2023-03-14T05:16:40;98426.47;;;9.84;98.50
23574;BME280;11965;53.640;10.050;2023-03-14T05:19:15;98431.31;;;9.77;100.00
23574;BME280;11965;53.640;10.050;2023-03-14T05:22:00;98420.19;;;9.43;100.00
23574;BME280;11965;53.640;10.050;2023-03-14T05:24:47;98422.09;;;9.14;100.00
23574;BME280;11965;53.640;10.050;2023-03-14T05:27:41;98421.44;;;8.83;100.00
23574;BME280;11965;53.640;10.050;2023-03-14T05:30:28;98412.47;;;8.65;100.00
23574;BME280;11965;53.640;10.050;2023-03-14T05:33:09;98408.16;;;8.45;100.00
23574;BME280;11965;53.640;10.050;2023-03-14T05:35:56;98391.72;;;8.38;100.00
23574;BME280;11965;53.640;10.050;2023-03-14T05:38:41;98410.41;;;8.36;100.00
23574;BME280;11965;53.640;10.050;2023-03-14T05:41:33;98393.59;;;8.38;100.00
23574;BME280;11965;53.640;10.050;2023-03-14T05:44:26;98392.16;;;8.35;100.00
23574;BME280;11965;53.640;10.050;2023-03-14T05:47:25;98393.84;;;8.36;100.00
23574;BME280;11965;53.640;10.050;2023-03-14T05:50:18;98395.66;;;8.31;100.00
23574;BME280;11965;53.640;10.050;2023-03-14T05:53:05;98384.63;;;8.31;100.00
23574;BME280;11965;53.640;10.050;2023-03-14T05:55:51;98385.69;;;8.30;100.00
23574;BME280;11965;53.640;10.050;2023-03-14T05:58:46;98384.38;;;8.32;100.00
23574;BME280;11965;53.640;10.050;2023-03-14T06:01:24;98385.22;;;8.33;100.00
23574;BME280;11965;53.640;10.050;2023-03-14T06:04:17;98386.28;;;8.32;100.00
23574;BME280;11965;53.640;10.050;2023-03-14T06:06:48;98381.13;;;8.35;100.00
23574;BME280;11965;53.640;10.050;2023-03-14T06:09:16;98388.22;;;8.31;100.00
23574;BME280;11965;53.640;10.050;2023-03-14T06:11:45;98377.19;;;8.31;100.00
23574;BME280;11965;53.640;10.050;2023-03-14T06:14:14;98379.81;;;8.38;100.00
23574;BME280;11965;53.640;10.050;2023-03-14T06:16:44;98387.41;;;8.43;100.00
23574;BME280;11965;53.640;10.050;2023-03-14T06:19:13;98389.31;;;8.42;100.00
23574;BME280;11965;53.640;10.050;2023-03-14T06:21:41;98383.81;;;8.42;100.00
23574;BME280;11965;53.640;10.050;2023-03-14T06:24:08;98392.91;;;8.43;100.00
23574;BME280;11965;53.640;10.050;2023-03-14T06:26:40;98389.81;;;8.39;100.00
23574;BME280;11965;53.640;10.050;2023-03-14T06:29:08;98390.75;;;8.45;100.00
23574;BME280;11965;53.640;10.050;2023-03-14T06:31:37;98393.16;;;8.53;100.00
23574;BME280;11965;53.640;10.050;2023-03-14T06:34:06;98393.28;;;8.58;100.00
23574;BME280;11965;53.640;10.050;2023-03-14T06:36:33;98397.59;;;8.66;100.00
23574;BME280;11965;53.640;10.050;2023-03-14T06:39:03;98404.78;;;8.67;100.00
23574;BME280;11965;53.640;10.050;2023-03-14T06:41:32;98403.94;;;8.66;100.00
23574;BME280;11965;53.640;10.050;2023-03-14T06:44:00;98407.19;;;8.63;100.00
23574;BME280;11965;53.640;10.050;2023-03-14T06:46:27;98409.69;;;8.65;100.00
23574;BME280;11965;53.640;10.050;2023-03-14T06:48:55;98416.28;;;8.75;100.00
23574;BME280;11965;53.640;10.050;2023-03-14T06:51:22;98403.81;;;8.73;100.00
23574;BME280;11965;53.640;10.050;2023-03-14T06:53:49;98408.75;;;8.59;100.00
23574;BME280;11965;53.640;10.050;2023-03-14T06:56:19;98417.41;;;8.62;100.00
23574;BME280;11965;53.640;10.050;2023-03-14T06:58:46;98421.13;;;8.68;100.00
23574;BME280;11965;53.640;10.050;2023-03-14T07:01:20;98430.59;;;8.72;100.00
23574;BME280;11965;53.640;10.050;2023-03-14T07:03:49;98433.47;;;8.77;100.00
23574;BME280;11965;53.640;10.050;2023-03-14T07:06:18;98430.81;;;8.82;100.00
23574;BME280;11965;53.640;10.050;2023-03-14T07:08:45;98422.75;;;8.93;100.00
23574;BME280;11965;53.640;10.050;2023-03-14T07:11:14;98430.09;;;8.87;100.00
23574;BME280;11965;53.640;10.050;2023-03-14T07:13:41;98426.84;;;8.90;100.00
23574;BME280;11965;53.640;10.050;2023-03-14T07:16:09;98430.22;;;8.92;100.00
23574;BME280;11965;53.640;10.050;2023-03-14T07:18:37;98430.66;;;8.89;100.00
23574;BME280;11965;53.640;10.050;2023-03-14T07:21:06;98440.38;;;8.92;100.00
23574;BME280;11965;53.640;10.050;2023-03-14T07:23:36;98438.50;;;8.92;100.00
23574;BME280;11965;53.640;10.050;2023-03-14T07:26:04;98446.91;;;8.97;100.00
23574;BME280;11965;53.640;10.050;2023-03-14T07:28:33;98442.47;;;8.84;100.00
23574;BME280;11965;53.640;10.050;2023-03-14T07:31:06;98445.56;;;8.88;100.00
23574;BME280;11965;53.640;10.050;2023-03-14T07:33:34;98450.88;;;8.90;100.00
23574;BME280;11965;53.640;10.050;2023-03-14T07:36:03;98448.47;;;8.81;100.00
23574;BME280;11965;53.640;10.050;2023-03-14T07:38:30;98442.47;;;8.84;100.00
23574;BME280;11965;53.640;10.050;2023-03-14T07:41:17;98437.41;;;8.93;100.00
23574;BME280;11965;53.640;10.050;2023-03-14T07:44:06;98442.44;;;8.96;100.00
23574;BME280;11965;53.640;10.050;2023-03-14T07:46:33;98447.63;;;8.93;100.00
23574;BME280;11965;53.640;10.050;2023-03-14T07:49:00;98444.38;;;8.96;100.00
23574;BME280;11965;53.640;10.050;2023-03-14T07:51:30;98454.94;;;8.87;100.00
23574;BME280;11965;53.640;10.050;2023-03-14T07:53:57;98456.03;;;8.74;100.00
23574;BME280;11965;53.640;10.050;2023-03-14T07:56:25;98453.03;;;8.64;100.00
23574;BME280;11965;53.640;10.050;2023-03-14T07:58:52;98463.38;;;8.69;100.00
23574;BME280;11965;53.640;10.050;2023-03-14T08:01:19;98456.91;;;8.63;100.00
23574;BME280;11965;53.640;10.050;2023-03-14T08:03:45;98446.44;;;8.53;100.00
23574;BME280;11965;53.640;10.050;2023-03-14T08:06:12;98459.19;;;8.54;100.00
23574;BME280;11965;53.640;10.050;2023-03-14T08:08:39;98461.44;;;8.69;100.00
23574;BME280;11965;53.640;10.050;2023-03-14T08:11:07;98454.94;;;8.75;100.00
23574;BME280;11965;53.640;10.050;2023-03-14T08:13:36;98455.91;;;8.93;100.00
23574;BME280;11965;53.640;10.050;2023-03-14T08:16:04;98455.91;;;8.93;100.00
23574;BME280;11965;53.640;10.050;2023-03-14T08:18:32;98453.25;;;8.86;100.00
23574;BME280;11965;53.640;10.050;2023-03-14T08:20:59;98451.81;;;8.83;100.00
23574;BME280;11965;53.640;10.050;2023-03-14T08:23:25;98450.59;;;8.91;100.00
23574;BME280;11965;53.640;10.050;2023-03-14T08:25:52;98450.88;;;8.90;100.00
23574;BME280;11965;53.640;10.050;2023-03-14T08:28:19;98447.72;;;8.98;100.00
23574;BME280;11965;53.640;10.050;2023-03-14T08:30:47;98448.31;;;9.00;100.00
23574;BME280;11965;53.640;10.050;2023-03-14T08:33:14;98438.34;;;8.99;100.00
23574;BME280;11965;53.640;10.050;2023-03-14T08:35:41;98442.78;;;9.12;100.00
23574;BME280;11965;53.640;10.050;2023-03-14T08:38:08;98450.44;;;9.10;100.00
23574;BME280;11965;53.640;10.050;2023-03-14T08:40:35;98440.63;;;9.02;100.00
23574;BME280;11965;53.640;10.050;2023-03-14T08:43:02;98437.69;;;9.20;100.00
23574;BME280;11965;53.640;10.050;2023-03-14T08:45:29;98443.50;;;9.07;100.00
23574;BME280;11965;53.640;10.050;2023-03-14T08:47:58;98433.28;;;9.07;100.00
23574;BME280;11965;53.640;10.050;2023-03-14T08:50:25;98440.94;;;9.17;100.00
23574;BME280;11965;53.640;10.050;2023-03-14T08:52:52;98444.88;;;9.21;100.00
23574;BME280;11965;53.640;10.050;2023-03-14T08:55:19;98444.88;;;9.21;100.00
23574;BME280;11965;53.640;10.050;2023-03-14T08:57:46;98441.41;;;9.26;100.00
23574;BME280;11965;53.640;10.050;2023-03-14T09:00:13;98453.28;;;9.26;100.00
23574;BME280;11965;53.640;10.050;2023-03-14T09:02:41;98451.13;;;9.28;100.00
23574;BME280;11965;53.640;10.050;2023-03-14T09:05:10;98446.81;;;9.33;100.00
23574;BME280;11965;53.640;10.050;2023-03-14T09:07:37;98445.66;;;9.45;100.00
23574;BME280;11965;53.640;10.050;2023-03-14T09:10:05;98447.63;;;9.33;100.00
23574;BME280;11965;53.640;10.050;2023-03-14T09:12:33;98437.75;;;9.37;100.00
23574;BME280;11965;53.640;10.050;2023-03-14T09:15:00;98445.47;;;9.35;100.00
23574;BME280;11965;53.640;10.050;2023-03-14T09:17:27;98450.25;;;9.40;100.00
23574;BME280;11965;53.640;10.050;2023-03-14T09:19:54;98445.19;;;9.48;100.00
23574;BME280;11965;53.640;10.050;2023-03-14T09:22:22;98448.63;;;9.56;100.00
23574;BME280;11965;53.640;10.050;2023-03-14T09:24:51;98451.38;;;9.56;100.00
23574;BME280;11965;53.640;10.050;2023-03-14T09:27:17;98449.50;;;9.44;100.00
23574;BME280;11965;53.640;10.050;2023-03-14T09:29:44;98457.59;;;9.34;100.00
23574;BME280;11965;53.640;10.050;2023-03-14T09:32:11;98451.00;;;9.23;100.00
23574;BME280;11965;53.640;10.050;2023-03-14T09:34:38;98461.34;;;9.28;100.00
23574;BME280;11965;53.640;10.050;2023-03-14T09:37:05;98466.16;;;9.21;100.00
23574;BME280;11965;53.640;10.050;2023-03-14T09:39:33;98458.03;;;9.14;100.00
23574;BME280;11965;53.640;10.050;2023-03-14T09:42:04;98450.34;;;9.16;100.00
23574;BME280;11965;53.640;10.050;2023-03-14T09:44:37;98451.06;;;9.12;100.00
23574;BME280;11965;53.640;10.050;2023-03-14T09:47:10;98466.16;;;9.21;100.00
23574;BME280;11965;53.640;10.050;2023-03-14T09:49:40;98443.44;;;9.31;100.00
23574;BME280;11965;53.640;10.050;2023-03-14T09:52:13;98469.03;;;9.26;100.00
23574;BME280;11965;53.640;10.050;2023-03-14T09:54:52;98541.91;;;9.08;100.00
23574;BME280;11965;53.640;10.050;2023-03-14T09:57:22;98545.97;;;8.82;100.00
23574;BME280;11965;53.640;10.050;2023-03-14T09:59:53;98563.59;;;8.57;100.00
23574;BME280;11965;53.640;10.050;2023-03-14T10:02:23;98571.41;;;8.60;100.00
23574;BME280;11965;53.640;10.050;2023-03-14T10:04:52;98587.94;;;8.49;100.00
23574;BME280;11965;53.640;10.050;2023-03-14T10:07:26;98579.09;;;8.28;100.00
23574;BME280;11965;53.640;10.050;2023-03-14T10:09:55;98588.44;;;8.27;100.00
23574;BME280;11965;53.640;10.050;2023-03-14T10:12:31;98607.44;;;8.35;100.00
23574;BME280;11965;53.640;10.050;2023-03-14T10:15:03;98630.09;;;7.95;100.00
23574;BME280;11965;53.640;10.050;2023-03-14T10:17:39;98652.16;;;7.59;100.00
23574;BME280;11965;53.640;10.050;2023-03-14T10:20:25;98660.50;;;7.08;100.00
23574;BME280;11965;53.640;10.050;2023-03-14T10:22:53;98666.25;;;7.07;100.00
23574;BME280;11965;53.640;10.050;2023-03-14T10:25:27;98674.22;;;7.15;100.00
23574;BME280;11965;53.640;10.050;2023-03-14T10:27:54;98686.66;;;6.99;100.00
23574;BME280;11965;53.640;10.050;2023-03-14T10:30:38;98698.78;;;6.92;100.00
23574;BME280;11965;53.640;10.050;2023-03-14T10:33:12;98712.53;;;6.60;100.00
23574;BME280;11965;53.640;10.050;2023-03-14T10:35:52;98724.28;;;6.42;100.00
23574;BME280;11965;53.640;10.050;2023-03-14T10:38:26;98743.25;;;6.18;100.00
23574;BME280;11965;53.640;10.050;2023-03-14T10:40:56;98764.06;;;5.94;100.00
23574;BME280;11965;53.640;10.050;2023-03-14T10:43:26;98771.41;;;6.14;100.00
23574;BME280;11965;53.640;10.050;2023-03-14T10:45:56;98787.09;;;5.87;100.00
23574;BME280;11965;53.640;10.050;2023-03-14T10:48:30;98802.16;;;5.51;100.00
23574;BME280;11965;53.640;10.050;2023-03-14T10:51:04;98815.22;;;5.16;100.00
23574;BME280;11965;53.640;10.050;2023-03-14T10:53:40;98820.53;;;5.30;100.00
23574;BME280;11965;53.640;10.050;2023-03-14T10:56:13;98843.34;;;5.44;100.00
23574;BME280;11965;53.640;10.050;2023-03-14T10:58:43;98852.00;;;5.08;100.00
23574;BME280;11965;53.640;10.050;2023-03-14T11:01:27;98870.13;;;4.96;100.00
23574;BME280;11965;53.640;10.050;2023-03-14T11:04:02;98872.16;;;4.80;100.00
23574;BME280;11965;53.640;10.050;2023-03-14T11:06:39;98877.84;;;4.65;100.00
23574;BME280;11965;53.640;10.050;2023-03-14T11:09:19;98898.47;;;4.55;100.00
23574;BME280;11965;53.640;10.050;2023-03-14T11:11:49;98904.00;;;4.68;100.00
23574;BME280;11965;53.640;10.050;2023-03-14T11:14:26;98909.34;;;4.83;100.00
23574;BME280;11965;53.640;10.050;2023-03-14T11:17:00;98925.84;;;4.90;100.00
23574;BME280;11965;53.640;10.050;2023-03-14T11:19:45;98935.63;;;4.57;100.00
23574;BME280;11965;53.640;10.050;2023-03-14T11:22:21;98941.97;;;4.30;100.00
23574;BME280;11965;53.640;10.050;2023-03-14T11:25:04;98958.59;;;4.21;100.00
23574;BME280;11965;53.640;10.050;2023-03-14T11:27:41;98977.34;;;4.18;100.00
23574;BME280;11965;53.640;10.050;2023-03-14T11:30:18;98994.53;;;4.33;100.00
23574;BME280;11965;53.640;10.050;2023-03-14T11:32:51;98998.06;;;4.55;100.00
23574;BME280;11965;53.640;10.050;2023-03-14T11:35:26;99018.91;;;4.50;100.00
23574;BME280;11965;53.640;10.050;2023-03-14T11:38:04;99023.75;;;4.48;100.00
23574;BME280;11965;53.640;10.050;2023-03-14T11:40:35;99025.50;;;4.55;100.00
23574;BME280;11965;53.640;10.050;2023-03-14T11:43:13;99043.41;;;4.51;100.00
23574;BME280;11965;53.640;10.050;2023-03-14T11:45:43;99038.81;;;4.58;100.00
23574;BME280;11965;53.640;10.050;2023-03-14T11:48:19;99044.38;;;4.72;100.00
23574;BME280;11965;53.640;10.050;2023-03-14T11:50:52;99051.69;;;4.93;100.00
23574;BME280;11965;53.640;10.050;2023-03-14T11:53:25;99048.22;;;5.12;100.00
23574;BME280;11965;53.640;10.050;2023-03-14T11:55:59;99049.09;;;5.19;100.00
23574;BME280;11965;53.640;10.050;2023-03-14T11:58:32;99056.81;;;5.44;100.00
23574;BME280;11965;53.640;10.050;2023-03-14T12:01:06;99062.66;;;5.34;100.00
23574;BME280;11965;53.640;10.050;2023-03-14T12:03:43;99066.72;;;5.38;100.00
23574;BME280;11965;53.640;10.050;2023-03-14T12:06:19;99067.75;;;5.30;100.00
23574;BME280;11965;53.640;10.050;2023-03-14T12:08:50;99077.22;;;5.28;95.00
23574;BME280;11965;53.640;10.050;2023-03-14T12:11:31;99067.47;;;5.19;96.67
23574;BME280;11965;53.640;10.050;2023-03-14T12:14:00;99071.59;;;5.43;99.35
23574;BME280;11965;53.640;10.050;2023-03-14T12:16:34;99079.53;;;5.72;97.68
23574;BME280;11965;53.640;10.050;2023-03-14T12:19:26;99087.97;;;5.64;95.43
23574;BME280;11965;53.640;10.050;2023-03-14T12:21:59;99100.16;;;5.55;93.73
23574;BME280;11965;53.640;10.050;2023-03-14T12:24:30;99108.84;;;5.59;96.40
23574;BME280;11965;53.640;10.050;2023-03-14T12:27:00;99123.41;;;5.46;94.55
23574;BME280;11965;53.640;10.050;2023-03-14T12:29:29;99129.06;;;5.38;94.27
23574;BME280;11965;53.640;10.050;2023-03-14T12:32:21;99136.06;;;5.40;96.95
23574;BME280;11965;53.640;10.050;2023-03-14T12:34:50;99132.91;;;5.43;95.33
23574;BME280;11965;53.640;10.050;2023-03-14T12:37:23;99150.00;;;5.45;92.32
23574;BME280;11965;53.640;10.050;2023-03-14T12:40:12;99158.56;;;5.64;96.16
23574;BME280;11965;53.640;10.050;2023-03-14T12:42:51;99147.59;;;5.70;93.71
23574;BME280;11965;53.640;10.050;2023-03-14T12:45:28;99153.75;;;5.72;93.15
23574;BME280;11965;53.640;10.050;2023-03-14T12:48:11;99162.97;;;5.58;93.64
23574;BME280;11965;53.640;10.050;2023-03-14T12:50:43;99161.69;;;5.54;91.29
23574;BME280;11965;53.640;10.050;2023-03-14T12:53:39;99156.94;;;5.76;95.03
23574;BME280;11965;53.640;10.050;2023-03-14T12:56:22;99154.59;;;5.80;87.81
23574;BME280;11965;53.640;10.050;2023-03-14T12:59:05;99179.53;;;6.19;90.83
23574;BME280;11965;53.640;10.050;2023-03-14T13:01:47;99181.88;;;6.36;91.52
23574;BME280;11965;53.640;10.050;2023-03-14T13:04:28;99193.75;;;6.30;88.84
23574;BME280;11965;53.640;10.050;2023-03-14T13:06:57;99189.97;;;6.57;89.33
23574;BME280;11965;53.640;10.050;2023-03-14T13:09:53;99214.72;;;6.44;86.06
23574;BME280;11965;53.640;10.050;2023-03-14T13:12:31;99226.75;;;6.36;87.91
23574;BME280;11965;53.640;10.050;2023-03-14T13:15:12;99238.91;;;6.62;88.19